Time,TemperatureF,DewpointF,PressureIn,WindDirection,WindDirectionDegrees,WindSpeedMPH,WindSpeedGustMPH,Humidity,HourlyPrecipIn,Conditions,Clouds,dailyrainin,SoftwareType,DateUTC
2013-06-16 00:04:00,55.0,49.0,29.98,WSW,253,0.0,1.0,80,0.00,,,0.00,weatherlink.com 1.10,2013-06-16 07:04:00,
2013-06-16 00:19:00,54.5,49.0,29.98,WSW,252,1.0,1.0,82,0.00,,,0.00,weatherlink.com 1.10,2013-06-16 07:19:00,
2013-06-16 00:34:00,54.3,49.0,29.98,West,267,2.0,2.0,82,0.00,,,0.00,weatherlink.com 1.10,2013-06-16 07:34:00,
2013-06-16 00:49:00,53.8,49.0,29.98,WSW,255,1.0,1.0,84,0.00,,,0.00,weatherlink.com 1.10,2013-06-16 07:49:00,
2013-06-16 01:05:00,53.6,49.0,29.98,West,261,2.0,2.0,85,0.00,,,0.00,weatherlink.com 1.10,2013-06-16 08:05:00,
2013-06-16 01:20:00,53.4,49.0,29.99,West,266,2.0,2.0,86,0.00,,,0.00,weatherlink.com 1.10,2013-06-16 08:20:00,
2013-06-16 01:35:00,53.0,50.0,29.99,West,274,1.0,1.0,88,0.00,,,0.00,weatherlink.com 1.10,2013-06-16 08:35:00,
2013-06-16 01:50:00,52.8,49.0,29.99,West,266,1.0,2.0,88,0.00,,,0.00,weatherlink.com 1.10,2013-06-16 08:50:00,
2013-06-16 02:05:00,52.8,49.0,29.99,West,266,1.0,1.0,88,0.00,,,0.00,weatherlink.com 1.10,2013-06-16 09:05:00,
2013-06-16 02:20:00,52.5,49.0,30.00,West,271,0.0,2.0,87,0.00,,,0.00,weatherlink.com 1.10,2013-06-16 09:20:00,
2013-06-16 02:35:00,52.3,49.0,30.00,West,270,1.0,1.0,89,0.00,,,0.00,weatherlink.com 1.10,2013-06-16 09:35:00,
2013-06-16 02:50:00,52.0,49.0,30.00,West,270,1.0,2.0,89,0.00,,,0.00,weatherlink.com 1.10,2013-06-16 09:50:00,
2013-06-16 03:05:00,52.0,49.0,30.01,West,269,0.0,2.0,90,0.00,,,0.00,weatherlink.com 1.10,2013-06-16 10:05:00,
2013-06-16 03:20:00,51.8,49.0,30.01,West,269,0.0,0.0,91,0.00,,,0.00,weatherlink.com 1.10,2013-06-16 10:20:00,
2013-06-16 03:35:00,51.4,49.0,30.01,West,269,1.0,1.0,92,0.00,,,0.00,weatherlink.com 1.10,2013-06-16 10:35:00,
2013-06-16 03:50:00,51.5,50.0,30.01,West,269,0.0,1.0,93,0.00,,,0.00,weatherlink.com 1.10,2013-06-16 10:50:00,
2013-06-16 04:05:00,51.1,49.0,30.01,West,264,0.0,1.0,93,0.00,,,0.00,weatherlink.com 1.10,2013-06-16 11:05:00,
2013-06-16 04:20:00,51.2,49.0,30.01,West,263,1.0,1.0,93,0.00,,,0.00,weatherlink.com 1.10,2013-06-16 11:20:00,
2013-06-16 04:35:00,50.7,49.0,30.02,West,266,1.0,2.0,94,0.00,,,0.00,weatherlink.com 1.10,2013-06-16 11:35:00,
2013-06-16 04:50:00,50.8,49.0,30.02,West,266,2.0,2.0,93,0.00,,,0.00,weatherlink.com 1.10,2013-06-16 11:50:00,
2013-06-16 05:05:00,50.3,49.0,30.02,WSW,257,2.0,2.0,94,0.00,,,0.00,weatherlink.com 1.10,2013-06-16 12:05:00,
2013-06-16 05:20:00,50.5,49.0,30.02,West,259,0.0,1.0,95,0.00,,,0.00,weatherlink.com 1.10,2013-06-16 12:20:00,
2013-06-16 05:35:00,50.5,49.0,30.03,West,259,1.0,1.0,95,0.00,,,0.00,weatherlink.com 1.10,2013-06-16 12:35:00,
2013-06-16 05:50:00,51.6,49.0,30.03,West,264,1.0,1.0,92,0.00,,,0.00,weatherlink.com 1.10,2013-06-16 12:50:00,
2013-06-16 06:05:00,54.1,52.0,30.03,West,267,0.0,1.0,93,0.00,,,0.00,weatherlink.com 1.10,2013-06-16 13:05:00,
2013-06-16 06:20:00,56.1,52.0,30.04,West,263,0.0,1.0,85,0.00,,,0.00,weatherlink.com 1.10,2013-06-16 13:20:00,
2013-06-16 06:35:00,54.2,51.0,30.04,SE,135,0.0,1.0,89,0.00,,,0.00,weatherlink.com 1.10,2013-06-16 13:35:00,
2013-06-16 06:50:00,54.1,51.0,30.05,SE,136,0.0,0.0,90,0.00,,,0.00,weatherlink.com 1.10,2013-06-16 13:50:00,
2013-06-16 07:05:00,55.0,53.0,30.05,East,92,0.0,1.0,91,0.00,,,0.00,weatherlink.com 1.10,2013-06-16 14:05:00,
2013-06-16 07:20:00,56.2,52.0,30.05,East,81,1.0,1.0,87,0.00,,,0.00,weatherlink.com 1.10,2013-06-16 14:20:00,
2013-06-16 07:35:00,56.0,53.0,30.05,ENE,58,3.0,3.0,89,0.00,,,0.00,weatherlink.com 1.10,2013-06-16 14:35:00,
2013-06-16 07:50:00,55.1,53.0,30.05,NE,46,3.0,4.0,91,0.00,,,0.00,weatherlink.com 1.10,2013-06-16 14:50:00,
2013-06-16 08:05:00,56.2,53.0,30.05,SE,139,3.0,4.0,89,0.00,,,0.00,weatherlink.com 1.10,2013-06-16 15:05:00,
2013-06-16 08:20:00,57.5,53.0,30.04,ENE,72,0.0,3.0,86,0.00,,,0.00,weatherlink.com 1.10,2013-06-16 15:20:00,
2013-06-16 08:35:00,57.4,54.0,30.05,ESE,122,5.0,6.0,87,0.00,,,0.00,weatherlink.com 1.10,2013-06-16 15:35:00,
2013-06-16 08:50:00,57.1,53.0,30.05,SE,143,7.0,9.0,87,0.00,,,0.00,weatherlink.com 1.10,2013-06-16 15:50:00,
2013-06-16 09:06:00,57.5,54.0,30.05,East,92,7.0,8.0,88,0.00,,,0.00,weatherlink.com 1.10,2013-06-16 16:06:00,
2013-06-16 09:21:00,58.0,54.0,30.05,SSE,156,6.0,9.0,85,0.00,,,0.00,weatherlink.com 1.10,2013-06-16 16:21:00,
2013-06-16 09:36:00,58.1,54.0,30.05,ESE,119,2.0,7.0,87,0.00,,,0.00,weatherlink.com 1.10,2013-06-16 16:36:00,
2013-06-16 09:51:00,58.8,54.0,30.05,East,91,1.0,6.0,85,0.00,,,0.00,weatherlink.com 1.10,2013-06-16 16:51:00,
2013-06-16 10:06:00,59.3,55.0,30.05,ENE,61,2.0,4.0,84,0.00,,,0.00,weatherlink.com 1.10,2013-06-16 17:06:00,
2013-06-16 10:21:00,59.1,54.0,30.05,NE,53,4.0,6.0,83,0.00,,,0.00,weatherlink.com 1.10,2013-06-16 17:21:00,
2013-06-16 10:36:00,59.5,55.0,30.04,NE,50,2.0,5.0,84,0.00,,,0.00,weatherlink.com 1.10,2013-06-16 17:36:00,
2013-06-16 10:51:00,60.9,55.0,30.05,SSE,155,4.0,5.0,82,0.00,,,0.00,weatherlink.com 1.10,2013-06-16 17:51:00,
2013-06-16 11:06:00,61.6,55.0,30.04,SE,134,4.0,5.0,80,0.00,,,0.00,weatherlink.com 1.10,2013-06-16 18:06:00,
2013-06-16 11:21:00,62.6,56.0,30.04,ESE,106,1.0,3.0,79,0.00,,,0.00,weatherlink.com 1.10,2013-06-16 18:21:00,
2013-06-16 11:36:00,62.6,56.0,30.04,NE,44,5.0,6.0,78,0.00,,,0.00,weatherlink.com 1.10,2013-06-16 18:36:00,
2013-06-16 11:51:00,63.7,56.0,30.03,SSE,150,5.0,6.0,76,0.00,,,0.00,weatherlink.com 1.10,2013-06-16 18:51:00,
2013-06-16 12:06:00,64.4,56.0,30.03,SE,141,3.0,6.0,74,0.00,,,0.00,weatherlink.com 1.10,2013-06-16 19:06:00,
2013-06-16 12:21:00,65.5,56.0,30.03,SE,146,4.0,6.0,72,0.00,,,0.00,weatherlink.com 1.10,2013-06-16 19:21:00,
2013-06-16 12:36:00,65.7,56.0,30.02,SE,146,3.0,9.0,71,0.00,,,0.00,weatherlink.com 1.10,2013-06-16 19:36:00,
2013-06-16 12:51:00,65.7,56.0,30.02,SSE,155,2.0,8.0,71,0.00,,,0.00,weatherlink.com 1.10,2013-06-16 19:51:00,
2013-06-16 13:06:00,67.2,57.0,30.02,SSE,160,5.0,5.0,70,0.00,,,0.00,weatherlink.com 1.10,2013-06-16 20:06:00,
2013-06-16 13:21:00,67.2,58.0,30.02,NE,40,5.0,5.0,72,0.00,,,0.00,weatherlink.com 1.10,2013-06-16 20:21:00,
2013-06-16 13:36:00,67.3,57.0,30.01,NE,41,3.0,5.0,69,0.00,,,0.00,weatherlink.com 1.10,2013-06-16 20:36:00,
2013-06-16 13:51:00,68.2,57.0,30.01,SE,146,3.0,7.0,67,0.00,,,0.00,weatherlink.com 1.10,2013-06-16 20:51:00,
2013-06-16 14:06:00,68.8,56.0,30.01,SSE,153,5.0,6.0,65,0.00,,,0.00,weatherlink.com 1.10,2013-06-16 21:06:00,
2013-06-16 14:21:00,68.8,57.0,30.01,SSE,150,4.0,7.0,66,0.00,,,0.00,weatherlink.com 1.10,2013-06-16 21:21:00,
2013-06-16 14:36:00,68.9,57.0,30.00,SSE,148,6.0,8.0,67,0.00,,,0.00,weatherlink.com 1.10,2013-06-16 21:36:00,
2013-06-16 14:51:00,68.8,58.0,30.01,South,170,5.0,10.0,68,0.00,,,0.00,weatherlink.com 1.10,2013-06-16 21:51:00,
2013-06-16 15:06:00,69.1,57.0,30.00,SSE,150,7.0,9.0,65,0.00,,,0.00,weatherlink.com 1.10,2013-06-16 22:06:00,
2013-06-16 15:21:00,69.5,57.0,30.00,SSE,165,4.0,8.0,65,0.00,,,0.00,weatherlink.com 1.10,2013-06-16 22:21:00,
2013-06-16 15:36:00,70.4,57.0,30.00,ENE,64,1.0,5.0,62,0.00,,,0.00,weatherlink.com 1.10,2013-06-16 22:36:00,
2013-06-16 15:51:00,70.3,56.0,30.00,NE,49,4.0,4.0,61,0.00,,,0.00,weatherlink.com 1.10,2013-06-16 22:51:00,
2013-06-16 16:06:00,69.9,57.0,30.00,NE,49,6.0,7.0,63,0.00,,,0.00,weatherlink.com 1.10,2013-06-16 23:06:00,
2013-06-16 16:21:00,69.4,57.0,30.01,ENE,68,4.0,7.0,65,0.00,,,0.00,weatherlink.com 1.10,2013-06-16 23:21:00,
2013-06-16 16:36:00,67.9,56.0,30.01,East,90,5.0,7.0,67,0.00,,,0.00,weatherlink.com 1.10,2013-06-16 23:36:00,
2013-06-16 16:51:00,68.1,57.0,30.01,ENE,59,6.0,7.0,67,0.00,,,0.00,weatherlink.com 1.10,2013-06-16 23:51:00,
2013-06-16 17:07:00,68.2,56.0,30.02,NE,34,2.0,6.0,66,0.00,,,0.00,weatherlink.com 1.10,2013-06-17 00:07:00,
2013-06-16 17:22:00,69.2,57.0,30.02,NNE,32,3.0,3.0,65,0.00,,,0.00,weatherlink.com 1.10,2013-06-17 00:22:00,
2013-06-16 17:37:00,68.6,57.0,30.02,NE,43,2.0,5.0,67,0.00,,,0.00,weatherlink.com 1.10,2013-06-17 00:37:00,
2013-06-16 17:52:00,69.1,58.0,30.02,NE,38,5.0,5.0,67,0.00,,,0.00,weatherlink.com 1.10,2013-06-17 00:52:00,
2013-06-16 18:07:00,68.3,56.0,30.02,NE,42,4.0,5.0,66,0.00,,,0.00,weatherlink.com 1.10,2013-06-17 01:07:00,
2013-06-16 18:22:00,68.6,57.0,30.02,ENE,67,2.0,4.0,66,0.00,,,0.00,weatherlink.com 1.10,2013-06-17 01:22:00,
2013-06-16 18:37:00,68.6,57.0,30.02,ENE,70,2.0,4.0,67,0.00,,,0.00,weatherlink.com 1.10,2013-06-17 01:37:00,
2013-06-16 18:52:00,68.2,56.0,30.02,NE,56,5.0,-999.0,66,-99.99,,,0.00,weatherlink.com 1.10,2013-06-17 01:52:00,
2013-06-16 19:07:00,67.9,56.0,30.03,East,82,2.0,5.0,67,0.00,,,0.00,weatherlink.com 1.10,2013-06-17 02:07:00,
2013-06-16 19:22:00,67.4,56.0,30.03,NE,49,3.0,4.0,67,0.00,,,0.00,weatherlink.com 1.10,2013-06-17 02:22:00,
2013-06-16 19:37:00,67.2,56.0,30.03,East,87,0.0,3.0,68,0.00,,,0.00,weatherlink.com 1.10,2013-06-17 02:37:00,
2013-06-16 19:52:00,67.0,57.0,30.03,East,82,0.0,3.0,70,0.00,,,0.00,weatherlink.com 1.10,2013-06-17 02:52:00,
2013-06-16 20:07:00,66.5,56.0,30.03,NE,44,3.0,6.0,69,0.00,,,0.00,weatherlink.com 1.10,2013-06-17 03:07:00,
2013-06-16 20:22:00,66.1,57.0,30.03,North,354,4.0,5.0,73,0.00,,,0.00,weatherlink.com 1.10,2013-06-17 03:22:00,
2013-06-16 20:37:00,64.8,56.0,30.04,NW,320,3.0,5.0,73,0.00,,,0.00,weatherlink.com 1.10,2013-06-17 03:37:00,
2013-06-16 20:52:00,63.7,55.0,30.04,NW,320,0.0,5.0,74,0.00,,,0.00,weatherlink.com 1.10,2013-06-17 03:52:00,
2013-06-16 21:07:00,62.6,55.0,30.04,NW,311,1.0,2.0,77,0.00,,,0.00,weatherlink.com 1.10,2013-06-17 04:07:00,
2013-06-16 21:22:00,61.4,55.0,30.05,SSW,210,0.0,1.0,79,0.00,,,0.00,weatherlink.com 1.10,2013-06-17 04:22:00,
2013-06-16 21:37:00,60.4,55.0,30.05,West,269,0.0,1.0,82,0.00,,,0.00,weatherlink.com 1.10,2013-06-17 04:37:00,
2013-06-16 21:52:00,59.4,55.0,30.05,WSW,253,1.0,1.0,84,0.00,,,0.00,weatherlink.com 1.10,2013-06-17 04:52:00,
2013-06-16 22:07:00,58.8,54.0,30.06,WSW,250,0.0,1.0,85,0.00,,,0.00,weatherlink.com 1.10,2013-06-17 05:07:00,
2013-06-16 22:22:00,58.0,54.0,30.06,WSW,250,0.0,2.0,87,0.00,,,0.00,weatherlink.com 1.10,2013-06-17 05:22:00,
2013-06-16 22:37:00,57.5,54.0,30.06,West,274,2.0,2.0,88,0.00,,,0.00,weatherlink.com 1.10,2013-06-17 05:37:00,
2013-06-16 22:52:00,56.9,54.0,30.06,West,264,1.0,2.0,89,0.00,,,0.00,weatherlink.com 1.10,2013-06-17 05:52:00,
2013-06-16 23:07:00,56.6,54.0,30.07,West,262,0.0,1.0,90,0.00,,,0.00,weatherlink.com 1.10,2013-06-17 06:07:00,
2013-06-16 23:22:00,56.1,53.0,30.07,West,262,1.0,1.0,90,0.00,,,0.00,weatherlink.com 1.10,2013-06-17 06:22:00,
2013-06-16 23:37:00,55.4,53.0,30.07,West,269,2.0,2.0,91,0.00,,,0.00,weatherlink.com 1.10,2013-06-17 06:37:00,
2013-06-16 23:52:00,55.1,53.0,30.07,West,266,2.0,2.0,92,0.00,,,0.00,weatherlink.com 1.10,2013-06-17 06:52:00,